Time;durP1;ratioP1;P1;durP2;ratioP2;P2;SDS_P1;SDS_P2;PMS_P1;PMS_P2;Temp;Humidity;BMP_temperature;BMP_pressure;BME280_temperature;BME280_humidity;BME280_pressure;Samples;Min_cycle;Max_cycle;Signal;HPM_P1;HPM_P2
2022/12/19 00:00:09;;;;;;;;;;;;;;;;;;5110591;28;1913;-69
2022/12/19 00:02:34;;;;;;;;;;;;;;;;;;5111537;28;1300;-70
2022/12/19 00:04:59;;;;;;;;;;;;;;;;;;5093520;28;1336;-70
2022/12/19 00:07:25;;;;;;;;;;;;;;;;;;5094549;28;1114;-69
2022/12/19 00:09:50;;;;;;;;;;;;;;;;;;5111154;28;1149;-69
2022/12/19 00:12:15;;;;;;;;;;;;;;;;;;5112115;28;1005;-69
2022/12/19 00:14:40;;;;;;;;;;;;;;;;;;5094690;28;1381;-69
2022/12/19 00:17:06;;;;;;;;;;;;;;;;;;5110798;28;1093;-69
2022/12/19 00:19:31;;;;;;;;;;;;;;;;;;5110928;28;1909;-69
2022/12/19 00:21:56;;;;;;;;;;;;;;;;;;5112233;28;770;-69
2022/12/19 00:24:21;;;;;;;;;;;;;;;;;;5093948;28;1272;-69
2022/12/19 00:26:47;;;;;;;;;;;;;;;;;;5110832;28;1115;-69
2022/12/19 00:29:12;;;;;;;;;;;;;;;;;;5111740;28;840;-69
2022/12/19 00:31:38;;;;;;;;;;;;;;;;;;5094198;28;1111;-69
2022/12/19 00:34:03;;;;;;;;;;;;;;;;;;5110269;28;824;-69
2022/12/19 00:36:30;;;;;;;;;;;;;;;;;;5112424;28;918;-69
2022/12/19 00:38:56;;;;;;;;;;;;;;;;;;5111891;28;808;-69
2022/12/19 00:41:23;;;;;;;;;;;;;;;;;;5111371;28;1906;-69
2022/12/19 00:43:52;;;;;;;;;;;;;;;;;;5111837;28;1038;-69
2022/12/19 00:46:17;;;;;;;;;;;;;;;;;;5110263;28;1190;-69
2022/12/19 00:48:43;;;;;;;;;;;;;;;;;;5110203;28;1469;-69
2022/12/19 00:51:13;;;;;;;;;;;;;;;;;;5110497;28;899;-69
2022/12/19 00:53:38;;;;;;;;;;;;;;;;;;5110676;28;1328;-69
2022/12/19 00:56:05;;;;;;;;;;;;;;;;;;5110584;28;1346;-69
2022/12/19 00:58:30;;;;;;;;;;;;;;;;;;5112477;28;1143;-69
2022/12/19 01:00:56;;;;;;;;;;;;;;;;;;5093692;28;1913;-69
2022/12/19 01:03:22;;;;;;;;;;;;;;;;;;5112832;28;847;-69
2022/12/19 01:05:48;;;;;;;;;;;;;;;;;;5112185;28;970;-69
2022/12/19 01:08:16;;;;;;;;;;;;;;;;;;5111203;28;983;-69
2022/12/19 01:10:45;;;;;;;;;;;;;;;;;;5110391;28;1183;-69
2022/12/19 01:13:11;;;;;;;;;;;;;;;;;;5110106;28;1336;-69
2022/12/19 01:15:37;;;;;;;;;;;;;;;;;;5110028;28;1292;-69
2022/12/19 01:18:03;;;;;;;;;;;;;;;;;;5110851;28;943;-69
2022/12/19 01:20:28;;;;;;;;;;;;;;;;;;5111036;28;1890;-69
2022/12/19 01:22:53;;;;;;;;;;;;;;;;;;5092998;28;1289;-69
2022/12/19 01:25:19;;;;;;;;;;;;;;;;;;5109316;28;1251;-69
2022/12/19 01:27:44;;;;;;;;;;;;;;;;;;5111290;28;908;-69
2022/12/19 01:30:09;;;;;;;;;;;;;;;;;;5092279;28;1285;-69
2022/12/19 01:32:35;;;;;;;;;;;;;;;;;;5093011;28;1292;-69
2022/12/19 01:35:00;;;;;;;;;;;;;;;;;;5108829;28;801;-69
2022/12/19 01:37:25;;;;;;;;;;;;;;;;;;5111709;28;904;-69
2022/12/19 01:39:51;;;;;;;;;;;;;;;;;;5109272;28;1914;-69
2022/12/19 01:42:18;;;;;;;;;;;;;;;;;;5110663;28;879;-68
2022/12/19 01:45:03;;;;;;;;;;;;;;;;;;5110056;28;1298;-69
2022/12/19 01:47:28;;;;;;;;;;;;;;;;;;5111630;28;877;-69
2022/12/19 01:49:54;;;;;;;;;;;;;;;;;;5111070;28;887;-68
2022/12/19 01:52:20;;;;;;;;;;;;;;;;;;5110520;28;894;-68
2022/12/19 01:54:45;;;;;;;;;;;;;;;;;;5092793;28;1135;-68
2022/12/19 01:57:12;;;;;;;;;;;;;;;;;;5109769;28;1483;-68
2022/12/19 01:59:41;;;;;;;;;;;;;;;;;;5109657;28;1911;-68
2022/12/19 02:02:09;;;;;;;;;;;;;;;;;;5109341;28;1206;-68
2022/12/19 02:04:35;;;;;;;;;;;;;;;;;;5110271;28;1236;-68
2022/12/19 02:07:02;;;;;;;;;;;;;;;;;;5110176;28;883;-68
2022/12/19 02:09:27;;;;;;;;;;;;;;;;;;5109996;28;1282;-68
2022/12/19 02:11:53;;;;;;;;;;;;;;;;;;5109292;28;1268;-68
2022/12/19 02:14:18;;;;;;;;;;;;;;;;;;5110039;28;1140;-68
2022/12/19 02:16:50;;;;;;;;;;;;;;;;;;5110506;28;1464;-68
2022/12/19 02:19:18;;;;;;;;;;;;;;;;;;5111279;28;854;-68
2022/12/19 02:21:51;;;;;;;;;;;;;;;;;;5110580;28;1914;-71
2022/12/19 02:24:22;;;;;;;;;;;;;;;;;;5111863;28;1006;-71
2022/12/19 02:26:59;;;;;;;;;;;;;;;;;;5111074;28;805;-71
2022/12/19 02:29:43;;;;;;;;;;;;;;;;;;5110934;28;1034;-71
2022/12/19 02:32:20;;;;;;;;;;;;;;;;;;5110221;28;915;-72
2022/12/19 02:34:57;;;;;;;;;;;;;;;;;;5110915;28;804;-72
2022/12/19 02:37:27;;;;;;;;;;;;;;;;;;5109712;28;1040;-72
2022/12/19 02:39:52;;;;;;;;;;;;;;;;;;5112280;28;1898;-72
2022/12/19 02:42:41;;;;;;;;;;;;;;;;;;5112280;28;1288;-72
2022/12/19 02:45:08;;;;;;;;;;;;;;;;;;5103546;28;1117;-71
2022/12/19 02:47:34;;;;;;;;;;;;;;;;;;5113021;28;1185;-72
2022/12/19 02:50:00;;;;;;;;;;;;;;;;;;5113467;28;907;-71
2022/12/19 02:52:25;;;;;;;;;;;;;;;;;;5114065;27;925;-72
2022/12/19 02:54:52;;;;;;;;;;;;;;;;;;5113195;28;1395;-71
2022/12/19 02:57:25;;;;;;;;;;;;;;;;;;5112715;28;1321;-68
2022/12/19 03:00:00;;;;;;;;;;;;;;;;;;5112686;28;1906;-68
2022/12/19 03:02:37;;;;;;;;;;;;;;;;;;5114378;28;820;-68
2022/12/19 03:05:05;;;;;;;;;;;;;;;;;;5113264;28;1272;-68
2022/12/19 03:07:30;;;;;;;;;;;;;;;;;;5119030;28;1010;-69
2022/12/19 03:09:55;;;;;;;;;;;;;;;;;;5116171;28;848;-70
2022/12/19 03:12:28;;;;;;;;;;;;;;;;;;5114326;28;844;-69
2022/12/19 03:14:55;;;;;;;;;;;;;;;;;;5113171;28;1199;-70
2022/12/19 03:17:20;;;;;;;;;;;;;;;;;;5114434;28;864;-69
2022/12/19 03:19:46;;;;;;;;;;;;;;;;;;5114734;28;1963;-70
2022/12/19 03:22:11;;;;;;;;;;;;;;;;;;5095556;28;1233;-70
2022/12/19 03:24:37;;;;;;;;;;;;;;;;;;5112888;28;840;-69
2022/12/19 03:27:07;;;;;;;;;;;;;;;;;;5113227;28;1002;-69
2022/12/19 03:29:35;;;;;;;;;;;;;;;;;;5112810;28;1174;-69
2022/12/19 03:32:03;;;;;;;;;;;;;;;;;;5113747;28;832;-69
2022/12/19 03:34:39;;;;;;;;;;;;;;;;;;5114683;28;1081;-69
2022/12/19 03:37:06;;;;;;;;;;;;;;;;;;5114665;28;836;-70
2022/12/19 03:39:33;;;;;;;;;;;;;;;;;;5114069;28;1953;-69
2022/12/19 03:44:42;;;;;;;;;;;;;;;;;;5115109;28;990;-69
2022/12/19 03:47:30;;;;;;;;;;;;;;;;;;5113900;28;1201;-70
2022/12/19 03:49:55;;;;;;;;;;;;;;;;;;5113852;28;827;-69
2022/12/19 03:52:20;;;;;;;;;;;;;;;;;;5112944;28;911;-70
2022/12/19 03:54:55;;;;;;;;;;;;;;;;;;5114551;28;1153;-69
2022/12/19 03:57:41;;;;;;;;;;;;;;;;;;5112903;28;1253;-69
2022/12/19 04:00:17;;;;;;;;;;;;;;;;;;5112722;28;1914;-68
2022/12/19 04:02:43;;;;;;;;;;;;;;;;;;5113214;28;1193;-69
2022/12/19 04:05:11;;;;;;;;;;;;;;;;;;5112805;28;1344;-69
2022/12/19 04:07:37;;;;;;;;;;;;;;;;;;5114965;28;844;-70
2022/12/19 04:10:04;;;;;;;;;;;;;;;;;;5112041;28;1201;-69
2022/12/19 04:12:33;;;;;;;;;;;;;;;;;;5113843;28;1142;-69
2022/12/19 04:14:58;;;;;;;;;;;;;;;;;;5112852;28;1344;-68
2022/12/19 04:17:29;;;;;;;;;;;;;;;;;;5113807;28;963;-67
2022/12/19 04:19:54;;;;;;;;;;;;;;;;;;5114721;28;1918;-67
2022/12/19 04:22:30;;;;;;;;;;;;;;;;;;5112184;28;979;-69
2022/12/19 04:24:56;;;;;;;;;;;;;;;;;;5112822;27;923;-69
2022/12/19 04:27:21;;;;;;;;;;;;;;;;;;5110147;28;1206;-69
2022/12/19 04:29:50;;;;;;;;;;;;;;;;;;5109734;28;1218;-69
2022/12/19 04:32:15;;;;;;;;;;;;;;;;;;5110571;28;891;-69
2022/12/19 04:34:40;;;;;;;;;;;;;;;;;;5112276;28;907;-69
2022/12/19 04:37:06;;;;;;;;;;;;;;;;;;5110203;28;898;-69
2022/12/19 04:39:31;;;;;;;;;;;;;;;;;;5112030;28;1984;-69
2022/12/19 04:41:57;;;;;;;;;;;;;;;;;;5110869;28;1039;-69
2022/12/19 04:44:22;;;;;;;;;;;;;;;;;;5110841;28;987;-69
2022/12/19 04:46:47;;;;;;;;;;;;;;;;;;5110479;28;974;-69
2022/12/19 04:49:12;;;;;;;;;;;;;;;;;;5111323;28;907;-69
2022/12/19 04:51:38;;;;;;;;;;;;;;;;;;5111908;28;1196;-69
2022/12/19 04:54:03;;;;;;;;;;;;;;;;;;5092540;28;1253;-69
2022/12/19 04:56:28;;;;;;;;;;;;;;;;;;5110828;28;1166;-69
2022/12/19 04:58:57;;;;;;;;;;;;;;;;;;5111706;28;1084;-69
2022/12/19 05:01:22;;;;;;;;;;;;;;;;;;5108959;28;1965;-69
2022/12/19 05:03:48;;;;;;;;;;;;;;;;;;5111810;28;984;-69
2022/12/19 05:06:13;;;;;;;;;;;;;;;;;;5109775;28;1321;-69
2022/12/19 05:08:40;;;;;;;;;;;;;;;;;;5112120;28;816;-70
2022/12/19 05:11:05;;;;;;;;;;;;;;;;;;5110044;28;1190;-69
2022/12/19 05:13:31;;;;;;;;;;;;;;;;;;5110665;28;1193;-69
2022/12/19 05:15:57;;;;;;;;;;;;;;;;;;5110925;28;1304;-69
2022/12/19 05:18:23;;;;;;;;;;;;;;;;;;5111234;28;1126;-69
2022/12/19 05:20:48;;;;;;;;;;;;;;;;;;5112704;28;1949;-69
2022/12/19 05:23:13;;;;;;;;;;;;;;;;;;5110460;28;1297;-69
2022/12/19 05:25:38;;;;;;;;;;;;;;;;;;5111399;28;1158;-69
2022/12/19 05:28:04;;;;;;;;;;;;;;;;;;5110717;28;1014;-69
2022/12/19 05:30:29;;;;;;;;;;;;;;;;;;5112100;28;894;-69
2022/12/19 05:32:54;;;;;;;;;;;;;;;;;;5110562;28;1205;-69
2022/12/19 05:35:19;;;;;;;;;;;;;;;;;;5109229;28;1002;-69
2022/12/19 05:37:45;;;;;;;;;;;;;;;;;;5109914;28;998;-69
2022/12/19 05:40:10;;;;;;;;;;;;;;;;;;5109383;28;1962;-69
2022/12/19 05:42:35;;;;;;;;;;;;;;;;;;5111569;28;844;-70
2022/12/19 05:45:01;;;;;;;;;;;;;;;;;;5109684;28;1119;-69
2022/12/19 05:47:26;;;;;;;;;;;;;;;;;;5110905;28;903;-69
2022/12/19 05:49:51;;;;;;;;;;;;;;;;;;5110312;28;808;-69
2022/12/19 05:52:16;;;;;;;;;;;;;;;;;;5109074;28;895;-69
2022/12/19 05:54:42;;;;;;;;;;;;;;;;;;5111051;28;942;-69
2022/12/19 05:57:07;;;;;;;;;;;;;;;;;;5092187;28;1241;-69
2022/12/19 05:59:33;;;;;;;;;;;;;;;;;;5092413;28;1903;-69
2022/12/19 06:01:58;;;;;;;;;;;;;;;;;;5109460;28;935;-69
2022/12/19 06:04:24;;;;;;;;;;;;;;;;;;5109157;28;882;-70
2022/12/19 06:06:49;;;;;;;;;;;;;;;;;;5111086;28;1049;-69
2022/12/19 06:09:14;;;;;;;;;;;;;;;;;;5110244;28;832;-69
2022/12/19 06:11:39;;;;;;;;;;;;;;;;;;5110733;28;1191;-69
2022/12/19 06:14:05;;;;;;;;;;;;;;;;;;5113215;28;903;-69
2022/12/19 06:16:30;;;;;;;;;;;;;;;;;;5096308;28;1194;-69
2022/12/19 06:18:55;;;;;;;;;;;;;;;;;;5114799;28;924;-69
2022/12/19 06:21:21;;;;;;;;;;;;;;;;;;5112497;28;1894;-68
2022/12/19 06:23:47;;;;;;;;;;;;;;;;;;5113241;28;999;-68
2022/12/19 06:26:13;;;;;;;;;;;;;;;;;;5112685;28;1376;-68
2022/12/19 06:28:39;;;;;;;;;;;;;;;;;;5112779;28;1269;-68
2022/12/19 06:31:04;;;;;;;;;;;;;;;;;;5112481;28;1285;-68
2022/12/19 06:33:30;;;;;;;;;;;;;;;;;;5113913;28;1139;-68
2022/12/19 06:36:06;;;;;;;;;;;;;;;;;;5114234;28;829;-68
2022/12/19 06:38:33;;;;;;;;;;;;;;;;;;5114316;28;937;-69
2022/12/19 06:43:42;;;;;;;;;;;;;;;;;;5113496;28;669;-68
2022/12/19 06:46:08;;;;;;;;;;;;;;;;;;5112990;28;1257;-68
2022/12/19 06:48:33;;;;;;;;;;;;;;;;;;5112613;28;1285;-68
2022/12/19 06:50:58;;;;;;;;;;;;;;;;;;5112933;28;1362;-68
2022/12/19 06:53:24;;;;;;;;;;;;;;;;;;5115614;28;907;-68
2022/12/19 06:55:50;;;;;;;;;;;;;;;;;;5113358;28;853;-69
2022/12/19 06:58:16;;;;;;;;;;;;;;;;;;5114704;28;1121;-69
2022/12/19 07:00:41;;;;;;;;;;;;;;;;;;5114906;28;1910;-69
2022/12/19 07:03:08;;;;;;;;;;;;;;;;;;5113391;28;903;-68
2022/12/19 07:05:33;;;;;;;;;;;;;;;;;;5113617;28;995;-69
2022/12/19 07:07:59;;;;;;;;;;;;;;;;;;5112357;28;817;-69
2022/12/19 07:10:24;;;;;;;;;;;;;;;;;;5112345;28;1197;-69
2022/12/19 07:12:49;;;;;;;;;;;;;;;;;;5112590;28;796;-68
2022/12/19 07:15:15;;;;;;;;;;;;;;;;;;5112205;28;1278;-69
2022/12/19 07:17:40;;;;;;;;;;;;;;;;;;5113913;28;864;-69
2022/12/19 07:20:06;;;;;;;;;;;;;;;;;;5111345;28;1914;-69
2022/12/19 07:22:32;;;;;;;;;;;;;;;;;;5095074;28;1388;-68
2022/12/19 07:24:58;;;;;;;;;;;;;;;;;;5111245;28;1364;-68
2022/12/19 07:27:24;;;;;;;;;;;;;;;;;;5112477;28;859;-69
2022/12/19 07:29:49;;;;;;;;;;;;;;;;;;5113021;28;820;-69
2022/12/19 07:32:15;;;;;;;;;;;;;;;;;;5110946;28;1109;-69
2022/12/19 07:34:40;;;;;;;;;;;;;;;;;;5111568;28;1348;-69
2022/12/19 07:37:06;;;;;;;;;;;;;;;;;;5112461;28;757;-68
2022/12/19 07:39:31;;;;;;;;;;;;;;;;;;5111570;28;1512;-69
2022/12/19 07:41:57;;;;;;;;;;;;;;;;;;5111505;28;1996;-68
2022/12/19 07:44:22;;;;;;;;;;;;;;;;;;5112256;28;946;-68
2022/12/19 07:46:47;;;;;;;;;;;;;;;;;;5111851;28;1063;-69
2022/12/19 07:49:13;;;;;;;;;;;;;;;;;;5112629;28;828;-69
2022/12/19 07:51:38;;;;;;;;;;;;;;;;;;5112990;28;888;-68
2022/12/19 07:54:03;;;;;;;;;;;;;;;;;;5111580;28;1182;-68
2022/12/19 07:56:28;;;;;;;;;;;;;;;;;;5093785;28;1336;-68
2022/12/19 07:58:54;;;;;;;;;;;;;;;;;;5111327;28;986;-69
2022/12/19 08:01:19;;;;;;;;;;;;;;;;;;5111354;28;1910;-69
2022/12/19 08:03:44;;;;;;;;;;;;;;;;;;5111267;28;963;-68
2022/12/19 08:06:09;;;;;;;;;;;;;;;;;;5093637;28;1336;-68
2022/12/19 08:08:36;;;;;;;;;;;;;;;;;;5112419;28;1053;-68
2022/12/19 08:11:09;;;;;;;;;;;;;;;;;;5112168;28;835;-68
2022/12/19 08:13:34;;;;;;;;;;;;;;;;;;5112698;28;943;-68
2022/12/19 08:16:00;;;;;;;;;;;;;;;;;;5111995;28;891;-68
2022/12/19 08:18:25;;;;;;;;;;;;;;;;;;5111300;28;817;-68
2022/12/19 08:20:50;;;;;;;;;;;;;;;;;;5110914;28;1913;-68
2022/12/19 08:23:16;;;;;;;;;;;;;;;;;;5110506;28;1134;-68
2022/12/19 08:25:41;;;;;;;;;;;;;;;;;;5110703;28;1273;-68
2022/12/19 08:28:06;;;;;;;;;;;;;;;;;;5110615;28;836;-68
2022/12/19 08:30:32;;;;;;;;;;;;;;;;;;5093053;28;1285;-68
2022/12/19 08:32:57;;;;;;;;;;;;;;;;;;5111921;28;891;-68
2022/12/19 08:35:22;;;;;;;;;;;;;;;;;;5077190;28;1275;-68
2022/12/19 08:37:47;;;;;;;;;;;;;;;;;;5089585;28;845;-68
2022/12/19 08:40:13;;;;;;;;;;;;;;;;;;5091600;28;1949;-69
2022/12/19 08:42:38;;;;;;;;;;;;;;;;;;5091081;28;908;-69
2022/12/19 08:45:03;;;;;;;;;;;;;;;;;;5090418;28;900;-69
2022/12/19 08:47:29;;;;;;;;;;;;;;;;;;5090975;28;1174;-69
2022/12/19 08:49:54;;;;;;;;;;;;;;;;;;5073973;28;1452;-69
2022/12/19 08:52:19;;;;;;;;;;;;;;;;;;5090382;28;833;-70
2022/12/19 08:54:44;;;;;;;;;;;;;;;;;;5090885;28;959;-69
2022/12/19 08:57:10;;;;;;;;;;;;;;;;;;5089610;28;896;-69
2022/12/19 08:59:35;;;;;;;;;;;;;;;;;;5090810;28;1224;-69
2022/12/19 09:02:00;;;;;;;;;;;;;;;;;;5090628;28;1926;-69
2022/12/19 09:04:26;;;;;;;;;;;;;;;;;;5090109;28;841;-69
2022/12/19 09:06:52;;;;;;;;;;;;;;;;;;5089614;28;877;-69
2022/12/19 09:09:17;;;;;;;;;;;;;;;;;;5090008;28;967;-69
2022/12/19 09:11:42;;;;;;;;;;;;;;;;;;5090547;28;967;-69
2022/12/19 09:14:07;;;;;;;;;;;;;;;;;;5072255;28;1190;-69
2022/12/19 09:16:33;;;;;;;;;;;;;;;;;;5090980;28;812;-69
2022/12/19 09:18:58;;;;;;;;;;;;;;;;;;5091014;28;902;-69
2022/12/19 09:21:25;;;;;;;;;;;;;;;;;;5090679;28;1901;-69
2022/12/19 09:23:54;;;;;;;;;;;;;;;;;;5089672;28;1290;-69
2022/12/19 09:26:21;;;;;;;;;;;;;;;;;;5090218;28;875;-69
2022/12/19 09:28:46;;;;;;;;;;;;;;;;;;5089401;28;1145;-69
2022/12/19 09:31:16;;;;;;;;;;;;;;;;;;5088975;28;1193;-69
2022/12/19 09:33:43;;;;;;;;;;;;;;;;;;5090539;28;876;-69
2022/12/19 09:36:11;;;;;;;;;;;;;;;;;;5071982;28;1313;-69
2022/12/19 09:38:36;;;;;;;;;;;;;;;;;;5090706;28;1017;-69
2022/12/19 09:41:07;;;;;;;;;;;;;;;;;;5090448;28;1921;-71
2022/12/19 09:43:39;;;;;;;;;;;;;;;;;;5089376;28;1248;-68
2022/12/19 09:46:12;;;;;;;;;;;;;;;;;;5089735;28;1170;-69
2022/12/19 09:48:37;;;;;;;;;;;;;;;;;;5096091;28;1257;-69
2022/12/19 09:51:07;;;;;;;;;;;;;;;;;;5097558;28;1030;-70
2022/12/19 09:53:38;;;;;;;;;;;;;;;;;;5095681;28;1215;-69
2022/12/19 09:56:05;;;;;;;;;;;;;;;;;;5096075;28;1143;-69
2022/12/19 09:58:36;;;;;;;;;;;;;;;;;;5095189;28;1173;-69
2022/12/19 10:01:06;;;;;;;;;;;;;;;;;;5095945;28;1902;-68
2022/12/19 10:03:37;;;;;;;;;;;;;;;;;;5097405;28;995;-68
2022/12/19 10:06:17;;;;;;;;;;;;;;;;;;5097020;28;1353;-68
2022/12/19 10:08:43;;;;;;;;;;;;;;;;;;5097770;28;892;-69
2022/12/19 10:11:11;;;;;;;;;;;;;;;;;;5096738;28;1269;-69
2022/12/19 10:14:03;;;;;;;;;;;;;;;;;;5097595;28;942;-69
2022/12/19 10:16:34;;;;;;;;;;;;;;;;;;5096360;28;1223;-69
2022/12/19 10:19:02;;;;;;;;;;;;;;;;;;5095472;28;1210;-69
2022/12/19 10:21:30;;;;;;;;;;;;;;;;;;5096189;28;1957;-69
2022/12/19 10:23:58;;;;;;;;;;;;;;;;;;5096838;28;907;-69
2022/12/19 10:26:26;;;;;;;;;;;;;;;;;;5105696;28;1226;-69
2022/12/19 10:28:57;;;;;;;;;;;;;;;;;;5116681;27;1073;-69
2022/12/19 10:31:42;;;;;;;;;;;;;;;;;;5117508;27;768;-70
2022/12/19 10:34:40;;;;;;;;;;;;;;;;;;5084725;28;1254;-69
2022/12/19 10:37:17;;;;;;;;;;;;;;;;;;5093414;27;1214;-69
2022/12/19 10:39:50;;;;;;;;;;;;;;;;;;5115606;28;1961;-69
2022/12/19 10:42:39;;;;;;;;;;;;;;;;;;5114571;27;1166;-69
2022/12/19 10:45:11;;;;;;;;;;;;;;;;;;5089590;28;1200;-69
2022/12/19 10:47:36;;;;;;;;;;;;;;;;;;5096464;28;1234;-69
2022/12/19 10:50:02;;;;;;;;;;;;;;;;;;5096649;28;813;-69
2022/12/19 10:52:44;;;;;;;;;;;;;;;;;;5096051;28;991;-69
2022/12/19 10:55:28;;;;;;;;;;;;;;;;;;5094942;28;1298;-69
2022/12/19 10:57:56;;;;;;;;;;;;;;;;;;5093086;28;1209;-69
2022/12/19 11:00:21;;;;;;;;;;;;;;;;;;5091070;28;1909;-69
2022/12/19 11:02:50;;;;;;;;;;;;;;;;;;5093511;28;801;-69
2022/12/19 11:05:21;;;;;;;;;;;;;;;;;;5092931;28;809;-69
2022/12/19 11:07:59;;;;;;;;;;;;;;;;;;5093415;28;890;-69
2022/12/19 11:10:34;;;;;;;;;;;;;;;;;;5092955;28;899;-68
2022/12/19 11:12:59;;;;;;;;;;;;;;;;;;5092084;28;1293;-69
2022/12/19 11:15:24;;;;;;;;;;;;;;;;;;5092470;28;904;-69
2022/12/19 11:17:49;;;;;;;;;;;;;;;;;;5074690;28;1300;-70
2022/12/19 11:20:19;;;;;;;;;;;;;;;;;;5074181;28;1894;-69
2022/12/19 11:22:50;;;;;;;;;;;;;;;;;;5091783;28;1182;-69
2022/12/19 11:25:17;;;;;;;;;;;;;;;;;;5091276;28;1218;-69
2022/12/19 11:27:44;;;;;;;;;;;;;;;;;;5091386;28;1435;-69
2022/12/19 11:30:23;;;;;;;;;;;;;;;;;;5091862;28;1308;-69
2022/12/19 11:33:06;;;;;;;;;;;;;;;;;;5091977;28;1245;-69
2022/12/19 11:35:31;;;;;;;;;;;;;;;;;;5092362;28;1364;-69
2022/12/19 11:37:58;;;;;;;;;;;;;;;;;;5093239;28;765;-69
2022/12/19 11:40:30;;;;;;;;;;;;;;;;;;5090809;28;1886;-69
2022/12/19 11:42:59;;;;;;;;;;;;;;;;;;5091452;28;1194;-69
2022/12/19 11:45:39;;;;;;;;;;;;;;;;;;5092464;28;884;-69
2022/12/19 11:48:08;;;;;;;;;;;;;;;;;;5091670;28;1475;-69
2022/12/19 11:50:47;;;;;;;;;;;;;;;;;;5091827;28;1306;-69
2022/12/19 11:53:14;;;;;;;;;;;;;;;;;;5092145;28;1354;-69
2022/12/19 11:55:45;;;;;;;;;;;;;;;;;;5093511;28;856;-69
2022/12/19 11:58:11;;;;;;;;;;;;;;;;;;5091387;28;1297;-69
2022/12/19 12:00:39;;;;;;;;;;;;;;;;;;5093355;28;1910;-69
2022/12/19 12:03:23;;;;;;;;;;;;;;;;;;5091575;28;1494;-69
2022/12/19 12:05:50;;;;;;;;;;;;;;;;;;5090471;28;1206;-69
2022/12/19 12:08:24;;;;;;;;;;;;;;;;;;5091785;28;837;-69
2022/12/19 12:10:58;;;;;;;;;;;;;;;;;;5090932;28;995;-69
2022/12/19 12:13:46;;;;;;;;;;;;;;;;;;5090439;28;1198;-69
2022/12/19 12:16:15;;;;;;;;;;;;;;;;;;5091866;28;1332;-68
2022/12/19 12:18:59;;;;;;;;;;;;;;;;;;5074226;28;1233;-69
2022/12/19 12:21:28;;;;;;;;;;;;;;;;;;5090277;28;1910;-69
2022/12/19 12:24:06;;;;;;;;;;;;;;;;;;5090322;28;1174;-69
2022/12/19 12:26:36;;;;;;;;;;;;;;;;;;5089764;28;1142;-69
2022/12/19 12:29:20;;;;;;;;;;;;;;;;;;5086466;28;978;-69
2022/12/19 12:32:04;;;;;;;;;;;;;;;;;;5071099;28;657;-69
2022/12/19 12:34:42;;;;;;;;;;;;;;;;;;5071193;28;853;-71
2022/12/19 12:37:14;;;;;;;;;;;;;;;;;;5069716;28;1224;-70
2022/12/19 12:39:56;;;;;;;;;;;;;;;;;;5069900;28;1227;-71
2022/12/19 12:42:40;;;;;;;;;;;;;;;;;;5070609;28;848;-71
2022/12/19 12:45:22;;;;;;;;;;;;;;;;;;5070595;28;1059;-70
2022/12/19 12:47:50;;;;;;;;;;;;;;;;;;5069632;28;1183;-68
2022/12/19 12:50:17;;;;;;;;;;;;;;;;;;5070195;28;829;-68
2022/12/19 12:52:44;;;;;;;;;;;;;;;;;;5069911;28;1313;-71
2022/12/19 12:55:24;;;;;;;;;;;;;;;;;;5069534;28;1214;-69
2022/12/19 12:57:49;;;;;;;;;;;;;;;;;;5069208;28;1207;-68
2022/12/19 13:00:28;;;;;;;;;;;;;;;;;;5085799;28;1914;-68
2022/12/19 13:03:10;;;;;;;;;;;;;;;;;;5069563;28;1076;-69
2022/12/19 13:05:45;;;;;;;;;;;;;;;;;;5070923;28;983;-69
2022/12/19 13:08:23;;;;;;;;;;;;;;;;;;5070888;28;809;-68
2022/12/19 13:10:57;;;;;;;;;;;;;;;;;;5070930;28;860;-68
2022/12/19 13:13:42;;;;;;;;;;;;;;;;;;5069918;28;1338;-68
2022/12/19 13:16:26;;;;;;;;;;;;;;;;;;5062282;28;1390;-68
2022/12/19 13:19:10;;;;;;;;;;;;;;;;;;5070005;28;1238;-68
2022/12/19 13:21:54;;;;;;;;;;;;;;;;;;5071363;28;1969;-68
2022/12/19 13:24:20;;;;;;;;;;;;;;;;;;5071484;28;923;-68
2022/12/19 13:26:48;;;;;;;;;;;;;;;;;;5070358;28;1195;-68
2022/12/19 13:29:27;;;;;;;;;;;;;;;;;;5084306;28;1203;-69
2022/12/19 13:32:13;;;;;;;;;;;;;;;;;;5090348;28;1297;-68
2022/12/19 13:34:38;;;;;;;;;;;;;;;;;;5090351;28;1495;-68
2022/12/19 13:37:06;;;;;;;;;;;;;;;;;;5090735;28;610;-69
2022/12/19 13:39:33;;;;;;;;;;;;;;;;;;5090062;28;837;-68
2022/12/19 13:44:58;;;;;;;;;;;;;;;;;;5090831;28;917;-69
2022/12/19 13:47:27;;;;;;;;;;;;;;;;;;5088698;28;1272;-68
2022/12/19 13:49:52;;;;;;;;;;;;;;;;;;5090025;28;829;-68
2022/12/19 13:52:18;;;;;;;;;;;;;;;;;;5087115;28;805;-69
2022/12/19 13:54:47;;;;;;;;;;;;;;;;;;5087866;28;876;-68
2022/12/19 13:57:20;;;;;;;;;;;;;;;;;;5086611;28;1198;-68
2022/12/19 13:59:46;;;;;;;;;;;;;;;;;;5089547;28;1081;-69
2022/12/19 14:02:17;;;;;;;;;;;;;;;;;;5087525;28;1905;-68
2022/12/19 14:04:43;;;;;;;;;;;;;;;;;;5087542;28;1396;-69
2022/12/19 14:07:27;;;;;;;;;;;;;;;;;;5089940;28;825;-68
2022/12/19 14:09:53;;;;;;;;;;;;;;;;;;5088895;28;1222;-69
2022/12/19 14:15:20;;;;;;;;;;;;;;;;;;5090681;28;670;-69
2022/12/19 14:17:49;;;;;;;;;;;;;;;;;;5089349;28;1158;-68
2022/12/19 14:20:17;;;;;;;;;;;;;;;;;;5089543;28;1902;-68
2022/12/19 14:22:42;;;;;;;;;;;;;;;;;;5090246;28;848;-68
2022/12/19 14:25:08;;;;;;;;;;;;;;;;;;5089012;28;996;-69
2022/12/19 14:27:38;;;;;;;;;;;;;;;;;;5089239;28;971;-69
2022/12/19 14:30:18;;;;;;;;;;;;;;;;;;5086200;28;1282;-70
2022/12/19 14:32:45;;;;;;;;;;;;;;;;;;5091057;28;888;-69
2022/12/19 14:35:14;;;;;;;;;;;;;;;;;;5093791;28;903;-69
2022/12/19 14:37:43;;;;;;;;;;;;;;;;;;5092549;28;1229;-69
2022/12/19 14:40:22;;;;;;;;;;;;;;;;;;5093965;28;1947;-69
2022/12/19 14:45:33;;;;;;;;;;;;;;;;;;5093748;28;984;-70
2022/12/19 14:47:58;;;;;;;;;;;;;;;;;;5092515;28;1261;-68
2022/12/19 14:50:29;;;;;;;;;;;;;;;;;;5092273;28;1234;-68
2022/12/19 14:53:13;;;;;;;;;;;;;;;;;;5093777;28;872;-68
2022/12/19 14:55:39;;;;;;;;;;;;;;;;;;5092787;28;1127;-68
2022/12/19 14:58:06;;;;;;;;;;;;;;;;;;5094152;28;975;-68
2022/12/19 15:00:41;;;;;;;;;;;;;;;;;;5092280;28;1978;-68
2022/12/19 15:03:06;;;;;;;;;;;;;;;;;;5094656;28;840;-69
2022/12/19 15:05:32;;;;;;;;;;;;;;;;;;5094288;28;899;-69
2022/12/19 15:07:58;;;;;;;;;;;;;;;;;;5093589;28;955;-69
2022/12/19 15:10:29;;;;;;;;;;;;;;;;;;5076346;28;1230;-67
2022/12/19 15:15:50;;;;;;;;;;;;;;;;;;5094337;28;691;-68
2022/12/19 15:18:38;;;;;;;;;;;;;;;;;;5091564;28;1293;-68
2022/12/19 15:21:06;;;;;;;;;;;;;;;;;;5092896;28;1902;-68
2022/12/19 15:23:32;;;;;;;;;;;;;;;;;;5092989;28;801;-68
2022/12/19 15:26:01;;;;;;;;;;;;;;;;;;5091811;28;966;-68
2022/12/19 15:28:35;;;;;;;;;;;;;;;;;;5091790;28;1281;-71
2022/12/19 15:31:04;;;;;;;;;;;;;;;;;;5092927;28;837;-71
2022/12/19 15:33:29;;;;;;;;;;;;;;;;;;5091316;28;1163;-71
2022/12/19 15:35:54;;;;;;;;;;;;;;;;;;5091485;28;1357;-68
2022/12/19 15:38:19;;;;;;;;;;;;;;;;;;5091110;28;841;-68
2022/12/19 15:40:45;;;;;;;;;;;;;;;;;;5094377;28;1961;-68
2022/12/19 15:43:21;;;;;;;;;;;;;;;;;;5096554;28;1328;-68
2022/12/19 15:45:49;;;;;;;;;;;;;;;;;;5092879;28;1222;-68
2022/12/19 15:48:15;;;;;;;;;;;;;;;;;;5097973;28;1437;-68
2022/12/19 15:50:41;;;;;;;;;;;;;;;;;;5093162;28;1206;-69
2022/12/19 15:53:16;;;;;;;;;;;;;;;;;;5109238;28;1340;-69
2022/12/19 15:55:42;;;;;;;;;;;;;;;;;;5095662;28;1301;-68
2022/12/19 15:58:10;;;;;;;;;;;;;;;;;;5096376;28;1024;-68
2022/12/19 16:00:35;;;;;;;;;;;;;;;;;;5110201;27;1971;-71
2022/12/19 16:03:01;;;;;;;;;;;;;;;;;;5108480;28;1316;-67
2022/12/19 16:05:27;;;;;;;;;;;;;;;;;;5095158;28;1187;-68
2022/12/19 16:07:53;;;;;;;;;;;;;;;;;;5096972;28;1167;-68
2022/12/19 16:10:18;;;;;;;;;;;;;;;;;;5100422;28;1321;-68
2022/12/19 16:12:46;;;;;;;;;;;;;;;;;;5102952;28;1281;-68
2022/12/19 16:15:31;;;;;;;;;;;;;;;;;;5105233;28;1242;-68
2022/12/19 16:17:57;;;;;;;;;;;;;;;;;;5095877;28;1096;-68
2022/12/19 16:20:24;;;;;;;;;;;;;;;;;;5105028;28;1915;-68
2022/12/19 16:22:49;;;;;;;;;;;;;;;;;;5104353;28;1450;-68
2022/12/19 16:25:15;;;;;;;;;;;;;;;;;;5096797;28;1331;-68
2022/12/19 16:27:41;;;;;;;;;;;;;;;;;;5099331;28;1214;-69
2022/12/19 16:30:17;;;;;;;;;;;;;;;;;;5097561;28;1218;-69
2022/12/19 16:32:43;;;;;;;;;;;;;;;;;;5111159;28;1199;-69
2022/12/19 16:35:13;;;;;;;;;;;;;;;;;;5087113;28;1308;-68
2022/12/19 16:37:38;;;;;;;;;;;;;;;;;;5102673;28;1265;-68
2022/12/19 16:40:04;;;;;;;;;;;;;;;;;;5092552;28;1901;-69
2022/12/19 16:42:30;;;;;;;;;;;;;;;;;;5076218;28;1211;-69
2022/12/19 16:44:56;;;;;;;;;;;;;;;;;;5106513;28;1338;-69
2022/12/19 16:47:21;;;;;;;;;;;;;;;;;;5121314;27;1235;-69
2022/12/19 16:49:46;;;;;;;;;;;;;;;;;;5094523;28;1187;-69
2022/12/19 16:52:12;;;;;;;;;;;;;;;;;;5087715;28;1239;-69
2022/12/19 16:54:37;;;;;;;;;;;;;;;;;;5082593;28;1234;-69
2022/12/19 16:57:05;;;;;;;;;;;;;;;;;;5088947;28;1159;-69
2022/12/19 16:59:39;;;;;;;;;;;;;;;;;;5086948;28;1261;-69
2022/12/19 17:02:23;;;;;;;;;;;;;;;;;;5088515;28;1922;-69
2022/12/19 17:04:48;;;;;;;;;;;;;;;;;;5089504;28;1186;-69
2022/12/19 17:07:14;;;;;;;;;;;;;;;;;;5087521;28;1175;-69
2022/12/19 17:09:39;;;;;;;;;;;;;;;;;;5099030;28;1238;-69
2022/12/19 17:12:04;;;;;;;;;;;;;;;;;;5091618;28;1163;-69
2022/12/19 17:14:33;;;;;;;;;;;;;;;;;;5102240;28;1238;-69
2022/12/19 17:16:58;;;;;;;;;;;;;;;;;;5100404;28;1242;-71
2022/12/19 17:19:26;;;;;;;;;;;;;;;;;;5086663;28;1223;-71
2022/12/19 17:21:51;;;;;;;;;;;;;;;;;;5091247;28;1913;-72
2022/12/19 17:24:17;;;;;;;;;;;;;;;;;;5088738;28;1354;-71
2022/12/19 17:26:42;;;;;;;;;;;;;;;;;;5097705;28;1233;-71
2022/12/19 17:29:09;;;;;;;;;;;;;;;;;;5103663;28;1096;-69
2022/12/19 17:31:36;;;;;;;;;;;;;;;;;;5099127;28;1151;-69
2022/12/19 17:34:06;;;;;;;;;;;;;;;;;;5092238;28;1135;-69